首页
METAR-TAF:

METAR-TAF

机场 :

Luxeuil-les-Bains, 法国

纬度: 47-47N, 经度: 006-21E, 海拔: 278米

当前天气观测

该预报发布于31分钟前的13:00 UTC
风速2节,风向多变
温度 24°C
湿度 22%
气压 1026 hPa
能见度10公里或以上
1500米以下无云,无积雨云

METAR: LFSX 071300Z AUTO VRB02KT CAVOK 24/01 Q1026

时间: 15:31 (13:31 UTC)

预报

该预报发布于5小时和31分钟前的08:00 UTC
预报有效从07日的 09点(UTC)到 08日的 09点(UTC)
风速4节,风向西
能见度10公里或以上
1500米以下无云,无积雨云

TAF: LFSX 070800Z 0709/0809 27004KT CAVOK

超过4000个机场的气象观测和天气预报(METAR&TAF报告)。

可查询的气象台以黄色和红色小点在地图上表示。

将鼠标移到小点上方,可查看气象台名称。

然后点击查看天气观测和预报。

如需切换地图:点击带黑十字的绿色按钮放大地图;点击带横线的绿色按钮缩小地图;或者点击绿色箭头查看邻近地区的地图。


METAR-TAF: